PDT,Max TemperatureF,Mean TemperatureF,Min TemperatureF,Max Dew PointF,MeanDew PointF,Min DewpointF,Max Humidity, Mean Humidity, Min Humidity, Max Sea Level PressureIn, Mean Sea Level PressureIn, Min Sea Level PressureIn, Max VisibilityMiles, Mean VisibilityMiles, Min VisibilityMiles, Max Wind SpeedMPH, Mean Wind SpeedMPH, Max Gust SpeedMPH,PrecipitationIn, CloudCover, Events, WindDirDegrees
2012-10-1,97,77,56,50,43,36,65,41,16,30.00,29.92,29.85,10,10,9,10,3,16,0.00,0,,318
2012-10-2,101,79,56,52,45,38,57,35,13,29.89,29.82,29.75,10,10,10,8,1,18,0.00,0,,354
2012-10-3,97,78,59,53,49,40,72,43,14,29.92,29.84,29.79,10,9,5,13,3,21,0.00,0,,310
2012-10-4,82,70,58,56,53,49,86,64,42,30.08,30.02,29.93,10,10,9,13,7,16,0.00,0,,338
2012-10-5,78,66,54,54,52,49,89,66,43,30.15,30.09,30.04,10,10,10,15,6,20,0.00,0,,302
2012-10-6,77,65,52,53,50,47,89,64,38,30.06,30.00,29.94,10,10,10,17,6,20,0.00,0,,305
2012-10-7,79,65,50,53,50,46,89,64,39,29.99,29.95,29.89,10,10,10,16,7,29,0.00,0,,304
2012-10-8,78,66,54,52,49,48,86,61,36,30.02,29.99,29.96,10,10,9,15,7,18,0.00,0,,287
2012-10-9,77,62,47,51,48,44,93,63,33,30.02,29.97,29.91,10,10,8,14,4,20,0.00,0,,311
2012-10-10,79,65,50,52,48,45,89,60,31,29.94,29.89,29.84,10,10,10,12,4,20,0.00,1,Thunderstorm,293
2012-10-11,66,59,51,52,50,47,89,73,56,29.96,29.89,29.85,10,10,7,14,8,17,T,3,Rain,298
2012-10-12,64,60,56,52,50,46,80,70,60,30.21,30.09,29.97,10,10,10,10,3,12,0.01,7,Rain,319
2012-10-13,74,61,48,52,49,46,96,70,44,30.30,30.22,30.16,10,10,8,10,5,17,0.00,0,,311
2012-10-14,82,66,50,56,52,46,89,64,39,30.20,30.13,30.04,10,9,5,9,3,16,0.00,0,,309
2012-10-15,84,68,51,58,53,48,96,67,37,30.07,30.00,29.92,10,10,9,16,4,18,0.00,0,,295
2012-10-16,87,72,56,61,57,51,80,60,40,29.97,29.90,29.82,10,10,10,15,5,22,0.00,0,,300
2012-10-17,85,70,54,52,39,33,53,37,21,29.92,29.87,29.81,10,10,9,20,9,24,0.00,0,,326
2012-10-18,91,72,53,59,50,42,77,51,24,30.00,29.94,29.88,10,10,6,9,3,14,0.00,0,,18
2012-10-19,83,73,62,63,58,47,93,69,45,30.04,29.97,29.88,10,10,6,12,6,21,0.00,3,,339
2012-10-20,79,66,53,55,51,44,86,64,42,29.88,29.82,29.76,10,10,10,14,6,,0.00,0,,279
2012-10-21,70,60,50,45,41,33,77,52,26,29.91,29.85,29.81,10,10,10,18,8,22,0.01,2,,278
2012-10-22,63,58,52,53,49,43,96,80,64,29.94,29.86,29.75,10,9,2,24,9,31,0.17,7,Rain,171
2012-10-23,66,58,50,52,46,38,96,67,37,30.06,30.01,29.95,10,9,6,15,4,22,0.06,3,Rain,325
2012-10-24,67,56,45,48,45,42,93,69,44,30.20,30.11,30.04,10,10,10,10,3,13,0.01,5,Rain,146
2012-10-25,70,62,54,49,47,40,83,64,45,30.26,30.21,30.18,10,10,10,17,6,22,0.00,4,,331
2012-10-26,74,59,44,43,37,31,76,48,20,30.23,30.15,30.08,10,10,10,14,8,17,0.00,0,,320
2012-10-27,78,62,45,51,45,39,83,58,33,30.08,30.02,29.94,10,10,10,12,2,15,0.00,0,,323
2012-10-28,80,65,50,53,50,45,86,63,39,30.01,29.97,29.93,10,10,7,8,3,17,0.00,0,,158
2012-10-29,80,66,51,56,52,46,89,66,42,30.11,30.04,30.01,10,10,7,9,2,14,0.00,0,,307
2012-10-30,80,64,47,56,52,46,100,71,42,30.07,30.00,29.94,10,8,0,7,2,17,0.00,0,Fog,298
2012-10-31,68,60,51,55,53,51,100,78,55,30.01,29.98,29.95,10,10,7,12,6,41,0.00,2,Rain,337